createdAt,value
2023-01-13T09:46:44.642Z,10.43
2023-01-13T10:19:31.189Z,10.62
2023-01-13T10:22:55.427Z,10.80
2023-01-13T10:26:08.368Z,10.94
2023-01-13T10:28:37.539Z,11.13
2023-01-13T10:31:14.883Z,11.18
2023-01-13T10:33:42.347Z,11.15
2023-01-13T10:36:21.617Z,11.39
2023-01-13T10:38:50.903Z,11.78
2023-01-13T10:41:26.939Z,11.93
2023-01-13T10:44:14.454Z,12.27
2023-01-13T10:46:59.696Z,12.36
2023-01-13T10:49:38.589Z,12.47
2023-01-13T10:52:30.964Z,12.71
2023-01-13T10:54:58.634Z,12.46
2023-01-13T10:57:28.472Z,12.44
2023-01-13T10:59:56.420Z,12.38
2023-01-13T11:02:34.470Z,12.30
2023-01-13T11:05:24.504Z,12.28
2023-01-13T11:07:54.987Z,12.19
2023-01-13T11:10:30.673Z,12.08
2023-01-13T11:14:03.698Z,12.07
2023-01-13T11:16:52.985Z,11.98
2023-01-13T11:19:25.501Z,11.83
2023-01-13T11:22:00.871Z,11.99
2023-01-13T11:24:55.739Z,11.93
2023-01-13T11:27:53.104Z,11.82
2023-01-13T11:31:21.557Z,11.71
2023-01-13T11:34:08.251Z,11.81
2023-01-13T11:36:57.976Z,11.66
2023-01-13T11:40:06.914Z,11.63
2023-01-13T11:43:28.364Z,11.63
2023-01-13T11:46:01.554Z,11.49
2023-01-13T11:48:36.109Z,11.58
2023-01-13T11:51:54.253Z,11.77
2023-01-13T11:55:06.241Z,11.77
2023-01-13T11:58:20.383Z,11.78
2023-01-13T12:01:34.765Z,11.84
2023-01-13T12:04:23.344Z,12.06
2023-01-13T12:07:40.297Z,12.01
2023-01-13T12:10:53.046Z,11.96
2023-01-13T12:14:28.978Z,12.01
2023-01-13T12:16:56.677Z,11.84
2023-01-13T12:19:31.208Z,11.77
2023-01-13T12:22:29.946Z,11.79
2023-01-13T12:25:14.072Z,11.74
2023-01-13T12:27:53.534Z,11.69
2023-01-13T12:30:52.374Z,11.87
2023-01-13T12:34:00.066Z,11.84
2023-01-13T12:36:59.345Z,11.98
2023-01-13T12:40:19.072Z,11.83
2023-01-13T12:43:38.988Z,11.68
2023-01-13T12:46:21.594Z,11.81
2023-01-13T12:48:59.155Z,11.96
2023-01-13T12:51:51.440Z,11.92
2023-01-13T12:54:30.946Z,11.88
2023-01-13T12:56:59.587Z,11.86
2023-01-13T12:59:26.678Z,12.16
2023-01-13T13:02:12.288Z,12.23
2023-01-13T13:04:56.563Z,12.15
2023-01-13T13:08:07.875Z,12.26
2023-01-13T13:10:58.435Z,12.22
2023-01-13T13:13:49.216Z,12.20
2023-01-13T13:16:25.625Z,12.21
2023-01-13T13:19:18.510Z,12.30
2023-01-13T13:22:14.108Z,12.25
2023-01-13T13:24:44.557Z,12.22
2023-01-13T13:27:37.308Z,12.26
2023-01-13T13:30:20.743Z,12.23
2023-01-13T13:33:55.528Z,12.19
2023-01-13T13:37:07.027Z,12.30
2023-01-13T13:39:53.456Z,12.29
2023-01-13T13:42:54.691Z,12.38
2023-01-13T13:45:46.560Z,12.26
2023-01-13T13:48:31.019Z,12.19
2023-01-13T13:51:20.471Z,12.28
2023-01-13T13:53:49.229Z,12.35
2023-01-13T13:56:27.630Z,12.23
2023-01-13T13:58:55.341Z,12.11
2023-01-13T14:01:36.578Z,11.99
2023-01-13T14:04:22.230Z,11.86
2023-01-13T14:07:16.159Z,11.91
2023-01-13T14:09:56.577Z,11.94
2023-01-13T14:12:27.584Z,11.93
2023-01-13T14:14:57.505Z,12.00
2023-01-13T14:17:29.235Z,11.36
2023-01-13T14:20:10.436Z,11.54
2023-01-13T14:22:37.859Z,11.18
2023-01-13T14:25:40.111Z,11.12
2023-01-13T14:28:13.373Z,11.03
2023-01-13T14:30:42.063Z,11.02
2023-01-13T14:33:21.192Z,10.36
2023-01-13T14:36:33.315Z,9.92
2023-01-13T14:39:03.487Z,10.12
2023-01-13T14:41:36.495Z,10.24
2023-01-13T14:44:27.785Z,10.04
2023-01-13T14:47:00.993Z,9.99
2023-01-13T14:49:58.961Z,10.15
2023-01-13T14:52:34.589Z,10.01
2023-01-13T14:55:09.139Z,9.84
2023-01-13T14:57:41.744Z,9.95
2023-01-13T15:00:15.069Z,9.76
2023-01-13T15:02:57.709Z,9.70
2023-01-13T15:05:29.794Z,9.76
2023-01-13T15:08:35.243Z,9.55
2023-01-13T15:11:08.283Z,9.60
2023-01-13T15:13:53.028Z,9.39
2023-01-13T15:16:29.816Z,9.21
2023-01-13T15:18:57.908Z,9.15
2023-01-13T15:21:25.492Z,9.38
2023-01-13T15:23:53.114Z,9.30
2023-01-13T15:26:30.000Z,9.39
2023-01-13T15:28:59.413Z,9.74
2023-01-13T15:31:28.342Z,9.70
2023-01-13T15:33:56.012Z,9.81
2023-01-13T15:36:30.997Z,10.13
2023-01-13T15:39:00.820Z,9.94
2023-01-13T15:41:47.226Z,10.14
2023-01-13T15:44:35.048Z,10.15
2023-01-13T15:47:09.468Z,10.15
2023-01-13T15:49:42.852Z,10.10
2023-01-13T15:52:36.639Z,10.27
2023-01-13T15:55:04.689Z,10.33
2023-01-13T15:57:37.596Z,10.18
2023-01-13T16:00:22.034Z,10.25
2023-01-13T16:02:50.764Z,10.23
2023-01-13T16:05:18.256Z,10.09
2023-01-13T16:07:45.700Z,10.18
2023-01-13T16:10:27.906Z,10.11
2023-01-13T16:12:58.542Z,10.11
2023-01-13T16:15:26.118Z,10.18
2023-01-13T16:17:59.875Z,10.13
2023-01-13T16:20:28.010Z,10.03
2023-01-13T16:22:55.416Z,10.07
2023-01-13T16:25:27.321Z,9.71
2023-01-13T16:27:54.813Z,9.83
2023-01-13T16:30:37.106Z,9.65
2023-01-13T16:33:04.602Z,9.61
2023-01-13T16:35:32.248Z,9.49
2023-01-13T16:37:59.922Z,9.55
2023-01-13T16:40:35.871Z,9.51
